sensor_id;sensor_type;location;lat;lon;timestamp;temperature;humidity
13585;DHT22;6863;48.402;9.994;2022-09-19T00:01:24;9.50;99.90
13585;DHT22;6863;48.402;9.994;2022-09-19T00:03:56;9.50;99.90
13585;DHT22;6863;48.402;9.994;2022-09-19T00:06:23;9.40;99.90
13585;DHT22;6863;48.402;9.994;2022-09-19T00:08:49;9.40;99.90
13585;DHT22;6863;48.402;9.994;2022-09-19T00:11:16;9.40;99.90
13585;DHT22;6863;48.402;9.994;2022-09-19T00:13:45;9.30;99.90
13585;DHT22;6863;48.402;9.994;2022-09-19T00:16:24;9.30;99.90
13585;DHT22;6863;48.402;9.994;2022-09-19T00:18:51;9.30;99.90
13585;DHT22;6863;48.402;9.994;2022-09-19T00:21:26;9.30;99.90
13585;DHT22;6863;48.402;9.994;2022-09-19T00:23:52;9.20;99.90
13585;DHT22;6863;48.402;9.994;2022-09-19T00:26:37;9.20;99.90
13585;DHT22;6863;48.402;9.994;2022-09-19T00:29:05;9.20;99.90
13585;DHT22;6863;48.402;9.994;2022-09-19T00:31:30;9.20;99.90
13585;DHT22;6863;48.402;9.994;2022-09-19T00:33:57;9.30;99.90
13585;DHT22;6863;48.402;9.994;2022-09-19T00:36:23;9.30;99.90
13585;DHT22;6863;48.402;9.994;2022-09-19T00:38:49;9.30;99.90
13585;DHT22;6863;48.402;9.994;2022-09-19T00:41:18;9.30;99.90
13585;DHT22;6863;48.402;9.994;2022-09-19T00:43:53;9.20;99.90
13585;DHT22;6863;48.402;9.994;2022-09-19T00:46:21;9.20;99.90
13585;DHT22;6863;48.402;9.994;2022-09-19T00:51:32;8.90;99.90
13585;DHT22;6863;48.402;9.994;2022-09-19T00:54:05;8.90;99.90
13585;DHT22;6863;48.402;9.994;2022-09-19T00:56:33;8.80;99.90
13585;DHT22;6863;48.402;9.994;2022-09-19T00:59:01;8.80;99.90
13585;DHT22;6863;48.402;9.994;2022-09-19T01:01:27;8.80;99.90
13585;DHT22;6863;48.402;9.994;2022-09-19T01:03:52;8.70;99.90
13585;DHT22;6863;48.402;9.994;2022-09-19T01:17:22;8.60;99.90
13585;DHT22;6863;48.402;9.994;2022-09-19T01:23:10;8.50;99.90
13585;DHT22;6863;48.402;9.994;2022-09-19T01:25:57;8.40;99.90
13585;DHT22;6863;48.402;9.994;2022-09-19T01:31:21;8.20;99.90
13585;DHT22;6863;48.402;9.994;2022-09-19T01:34:05;8.00;99.90
13585;DHT22;6863;48.402;9.994;2022-09-19T01:36:56;7.90;99.90
13585;DHT22;6863;48.402;9.994;2022-09-19T01:39:25;7.80;99.90
13585;DHT22;6863;48.402;9.994;2022-09-19T01:41:53;7.70;99.90
13585;DHT22;6863;48.402;9.994;2022-09-19T01:44:21;7.60;99.90
13585;DHT22;6863;48.402;9.994;2022-09-19T01:52:57;7.20;99.90
13585;DHT22;6863;48.402;9.994;2022-09-19T01:58:10;6.90;99.90
13585;DHT22;6863;48.402;9.994;2022-09-19T02:00:41;6.80;99.90
13585;DHT22;6863;48.402;9.994;2022-09-19T02:03:15;6.70;99.90
13585;DHT22;6863;48.402;9.994;2022-09-19T02:06:19;6.60;99.90
13585;DHT22;6863;48.402;9.994;2022-09-19T02:11:33;6.50;99.90
13585;DHT22;6863;48.402;9.994;2022-09-19T02:14:05;6.50;99.90
13585;DHT22;6863;48.402;9.994;2022-09-19T02:16:42;6.50;99.90
13585;DHT22;6863;48.402;9.994;2022-09-19T02:19:19;6.50;99.90
13585;DHT22;6863;48.402;9.994;2022-09-19T02:21:53;6.40;99.90
13585;DHT22;6863;48.402;9.994;2022-09-19T02:24:24;6.30;99.90
13585;DHT22;6863;48.402;9.994;2022-09-19T02:26:54;6.30;99.90
13585;DHT22;6863;48.402;9.994;2022-09-19T02:29:27;6.20;99.90
13585;DHT22;6863;48.402;9.994;2022-09-19T02:31:56;6.20;99.90
13585;DHT22;6863;48.402;9.994;2022-09-19T02:34:22;6.10;99.90
13585;DHT22;6863;48.402;9.994;2022-09-19T02:37:32;6.00;99.90
13585;DHT22;6863;48.402;9.994;2022-09-19T02:39:45;6.10;99.90
13585;DHT22;6863;48.402;9.994;2022-09-19T02:45:12;6.20;99.90
13585;DHT22;6863;48.402;9.994;2022-09-19T02:47:52;6.10;99.90
13585;DHT22;6863;48.402;9.994;2022-09-19T02:53:00;5.90;99.90
13585;DHT22;6863;48.402;9.994;2022-09-19T02:55:30;5.90;99.90
13585;DHT22;6863;48.402;9.994;2022-09-19T02:57:59;5.90;99.90
13585;DHT22;6863;48.402;9.994;2022-09-19T03:00:26;5.90;99.90
13585;DHT22;6863;48.402;9.994;2022-09-19T03:03:05;5.90;99.90
13585;DHT22;6863;48.402;9.994;2022-09-19T03:05:53;6.00;99.90
13585;DHT22;6863;48.402;9.994;2022-09-19T03:08:21;6.10;99.90
13585;DHT22;6863;48.402;9.994;2022-09-19T03:10:52;6.00;99.90
13585;DHT22;6863;48.402;9.994;2022-09-19T03:13:19;6.00;99.90
13585;DHT22;6863;48.402;9.994;2022-09-19T03:16:19;6.00;99.90
13585;DHT22;6863;48.402;9.994;2022-09-19T03:18:46;5.80;99.90
13585;DHT22;6863;48.402;9.994;2022-09-19T03:21:13;5.80;99.90
13585;DHT22;6863;48.402;9.994;2022-09-19T03:23:41;5.70;99.90
13585;DHT22;6863;48.402;9.994;2022-09-19T03:26:12;5.70;99.90
13585;DHT22;6863;48.402;9.994;2022-09-19T03:28:38;5.80;99.90
13585;DHT22;6863;48.402;9.994;2022-09-19T03:31:06;5.80;99.90
13585;DHT22;6863;48.402;9.994;2022-09-19T03:33:32;5.90;99.90
13585;DHT22;6863;48.402;9.994;2022-09-19T03:35:57;5.90;99.90
13585;DHT22;6863;48.402;9.994;2022-09-19T03:38:25;5.80;99.90
13585;DHT22;6863;48.402;9.994;2022-09-19T03:40:50;5.70;99.90
13585;DHT22;6863;48.402;9.994;2022-09-19T03:43:16;5.60;99.90
13585;DHT22;6863;48.402;9.994;2022-09-19T03:45:43;5.60;99.90
13585;DHT22;6863;48.402;9.994;2022-09-19T03:48:08;5.60;99.90
13585;DHT22;6863;48.402;9.994;2022-09-19T03:50:34;5.70;99.90
13585;DHT22;6863;48.402;9.994;2022-09-19T03:53:00;5.70;99.90
13585;DHT22;6863;48.402;9.994;2022-09-19T03:55:26;5.80;99.90
13585;DHT22;6863;48.402;9.994;2022-09-19T03:57:51;5.80;99.90
13585;DHT22;6863;48.402;9.994;2022-09-19T04:00:17;5.80;99.90
13585;DHT22;6863;48.402;9.994;2022-09-19T04:02:43;5.80;99.90
13585;DHT22;6863;48.402;9.994;2022-09-19T04:05:09;5.70;99.90
13585;DHT22;6863;48.402;9.994;2022-09-19T04:07:34;5.70;99.90
13585;DHT22;6863;48.402;9.994;2022-09-19T04:10:03;5.60;99.90
13585;DHT22;6863;48.402;9.994;2022-09-19T04:12:30;5.50;99.90
13585;DHT22;6863;48.402;9.994;2022-09-19T04:14:56;5.40;99.90
13585;DHT22;6863;48.402;9.994;2022-09-19T04:17:21;5.30;99.90
13585;DHT22;6863;48.402;9.994;2022-09-19T04:19:47;5.20;99.90
13585;DHT22;6863;48.402;9.994;2022-09-19T04:22:18;5.20;99.90
13585;DHT22;6863;48.402;9.994;2022-09-19T04:24:44;5.30;99.90
13585;DHT22;6863;48.402;9.994;2022-09-19T04:27:09;5.20;99.90
13585;DHT22;6863;48.402;9.994;2022-09-19T04:29:38;5.20;99.90
13585;DHT22;6863;48.402;9.994;2022-09-19T04:32:05;5.50;99.90
13585;DHT22;6863;48.402;9.994;2022-09-19T04:34:30;5.80;99.90
13585;DHT22;6863;48.402;9.994;2022-09-19T04:36:57;5.80;99.90
13585;DHT22;6863;48.402;9.994;2022-09-19T04:39:23;5.90;99.90
13585;DHT22;6863;48.402;9.994;2022-09-19T04:41:50;6.00;99.90
13585;DHT22;6863;48.402;9.994;2022-09-19T04:44:19;6.10;99.90
13585;DHT22;6863;48.402;9.994;2022-09-19T04:46:47;6.20;99.90
13585;DHT22;6863;48.402;9.994;2022-09-19T04:49:16;6.20;99.90
13585;DHT22;6863;48.402;9.994;2022-09-19T04:51:41;6.30;99.90
13585;DHT22;6863;48.402;9.994;2022-09-19T04:54:08;6.40;99.90
13585;DHT22;6863;48.402;9.994;2022-09-19T04:56:34;6.50;99.90
13585;DHT22;6863;48.402;9.994;2022-09-19T04:58:59;6.50;99.90
13585;DHT22;6863;48.402;9.994;2022-09-19T05:01:26;6.60;99.90
13585;DHT22;6863;48.402;9.994;2022-09-19T05:03:52;6.70;99.90
13585;DHT22;6863;48.402;9.994;2022-09-19T05:06:18;6.80;99.90
13585;DHT22;6863;48.402;9.994;2022-09-19T05:08:43;6.90;99.90
13585;DHT22;6863;48.402;9.994;2022-09-19T05:11:10;6.90;99.90
13585;DHT22;6863;48.402;9.994;2022-09-19T05:13:37;7.00;99.90
13585;DHT22;6863;48.402;9.994;2022-09-19T05:16:07;7.00;99.90
13585;DHT22;6863;48.402;9.994;2022-09-19T05:18:33;7.00;99.90
13585;DHT22;6863;48.402;9.994;2022-09-19T05:21:09;7.00;99.90
13585;DHT22;6863;48.402;9.994;2022-09-19T05:23:36;7.10;99.90
13585;DHT22;6863;48.402;9.994;2022-09-19T05:26:11;7.20;99.90
13585;DHT22;6863;48.402;9.994;2022-09-19T05:28:38;7.30;99.90
13585;DHT22;6863;48.402;9.994;2022-09-19T05:31:04;7.30;99.90
13585;DHT22;6863;48.402;9.994;2022-09-19T05:33:32;7.40;99.90
13585;DHT22;6863;48.402;9.994;2022-09-19T05:36:00;7.40;99.90
13585;DHT22;6863;48.402;9.994;2022-09-19T05:38:27;7.50;99.90
13585;DHT22;6863;48.402;9.994;2022-09-19T05:40:54;7.60;99.90
13585;DHT22;6863;48.402;9.994;2022-09-19T05:43:20;7.60;99.90
13585;DHT22;6863;48.402;9.994;2022-09-19T05:45:47;7.60;99.90
13585;DHT22;6863;48.402;9.994;2022-09-19T05:48:14;7.60;99.90
13585;DHT22;6863;48.402;9.994;2022-09-19T05:50:43;7.70;99.90
13585;DHT22;6863;48.402;9.994;2022-09-19T05:53:10;7.70;99.90
13585;DHT22;6863;48.402;9.994;2022-09-19T05:55:54;7.80;99.90
13585;DHT22;6863;48.402;9.994;2022-09-19T05:58:20;7.90;99.90
13585;DHT22;6863;48.402;9.994;2022-09-19T06:00:46;7.90;99.90
13585;DHT22;6863;48.402;9.994;2022-09-19T06:03:13;7.80;99.90
13585;DHT22;6863;48.402;9.994;2022-09-19T06:05:46;7.80;99.90
13585;DHT22;6863;48.402;9.994;2022-09-19T06:08:15;7.80;99.90
13585;DHT22;6863;48.402;9.994;2022-09-19T06:10:42;7.80;99.90
13585;DHT22;6863;48.402;9.994;2022-09-19T06:13:19;7.80;99.90
13585;DHT22;6863;48.402;9.994;2022-09-19T06:15:46;7.80;99.90
13585;DHT22;6863;48.402;9.994;2022-09-19T06:18:12;7.80;99.90
13585;DHT22;6863;48.402;9.994;2022-09-19T06:20:41;7.80;99.90
13585;DHT22;6863;48.402;9.994;2022-09-19T06:23:11;7.80;99.90
13585;DHT22;6863;48.402;9.994;2022-09-19T06:25:38;7.90;99.90
13585;DHT22;6863;48.402;9.994;2022-09-19T06:28:10;8.00;99.90
13585;DHT22;6863;48.402;9.994;2022-09-19T06:30:37;8.00;99.90
13585;DHT22;6863;48.402;9.994;2022-09-19T06:33:05;8.00;99.90
13585;DHT22;6863;48.402;9.994;2022-09-19T06:35:32;8.00;99.90
13585;DHT22;6863;48.402;9.994;2022-09-19T06:37:59;7.90;99.90
13585;DHT22;6863;48.402;9.994;2022-09-19T06:40:26;7.80;99.90
13585;DHT22;6863;48.402;9.994;2022-09-19T06:43:03;7.80;99.90
13585;DHT22;6863;48.402;9.994;2022-09-19T06:45:29;7.80;99.90
13585;DHT22;6863;48.402;9.994;2022-09-19T06:47:59;7.80;99.90
13585;DHT22;6863;48.402;9.994;2022-09-19T06:50:26;7.80;99.90
13585;DHT22;6863;48.402;9.994;2022-09-19T06:52:52;7.90;99.90
13585;DHT22;6863;48.402;9.994;2022-09-19T06:55:18;7.90;99.90
13585;DHT22;6863;48.402;9.994;2022-09-19T06:57:58;7.80;99.90
13585;DHT22;6863;48.402;9.994;2022-09-19T07:00:26;7.90;99.90
13585;DHT22;6863;48.402;9.994;2022-09-19T07:03:00;7.90;99.90
13585;DHT22;6863;48.402;9.994;2022-09-19T07:05:37;7.90;99.90
13585;DHT22;6863;48.402;9.994;2022-09-19T07:08:03;7.90;99.90
13585;DHT22;6863;48.402;9.994;2022-09-19T07:10:29;7.90;99.90
13585;DHT22;6863;48.402;9.994;2022-09-19T07:12:58;7.90;99.90
13585;DHT22;6863;48.402;9.994;2022-09-19T07:15:36;7.90;99.90
13585;DHT22;6863;48.402;9.994;2022-09-19T07:18:03;8.00;99.90
13585;DHT22;6863;48.402;9.994;2022-09-19T07:20:33;8.10;99.90
13585;DHT22;6863;48.402;9.994;2022-09-19T07:23:11;8.20;99.90
13585;DHT22;6863;48.402;9.994;2022-09-19T07:25:36;8.20;99.90
13585;DHT22;6863;48.402;9.994;2022-09-19T07:28:05;8.20;99.90
13585;DHT22;6863;48.402;9.994;2022-09-19T07:30:33;8.40;99.90
13585;DHT22;6863;48.402;9.994;2022-09-19T07:33:00;8.40;99.90
13585;DHT22;6863;48.402;9.994;2022-09-19T07:35:29;8.40;99.90
13585;DHT22;6863;48.402;9.994;2022-09-19T07:37:55;8.50;99.90
13585;DHT22;6863;48.402;9.994;2022-09-19T07:40:22;8.50;99.90
13585;DHT22;6863;48.402;9.994;2022-09-19T07:42:47;8.50;99.90
13585;DHT22;6863;48.402;9.994;2022-09-19T07:45:13;8.50;99.90
13585;DHT22;6863;48.402;9.994;2022-09-19T07:47:43;8.50;99.90
13585;DHT22;6863;48.402;9.994;2022-09-19T07:50:14;8.60;99.90
13585;DHT22;6863;48.402;9.994;2022-09-19T07:52:43;8.60;99.90
13585;DHT22;6863;48.402;9.994;2022-09-19T07:55:11;8.70;99.90
13585;DHT22;6863;48.402;9.994;2022-09-19T07:57:37;8.70;99.90
13585;DHT22;6863;48.402;9.994;2022-09-19T08:00:04;8.70;99.90
13585;DHT22;6863;48.402;9.994;2022-09-19T08:02:29;8.80;99.90
13585;DHT22;6863;48.402;9.994;2022-09-19T08:04:55;8.80;99.90
13585;DHT22;6863;48.402;9.994;2022-09-19T08:07:21;8.80;99.90
13585;DHT22;6863;48.402;9.994;2022-09-19T08:09:46;8.90;99.90
13585;DHT22;6863;48.402;9.994;2022-09-19T08:12:13;8.90;99.90
13585;DHT22;6863;48.402;9.994;2022-09-19T08:14:39;8.90;99.90
13585;DHT22;6863;48.402;9.994;2022-09-19T08:17:05;8.90;99.90
13585;DHT22;6863;48.402;9.994;2022-09-19T08:19:31;8.80;99.90
13585;DHT22;6863;48.402;9.994;2022-09-19T08:21:57;8.80;99.90
13585;DHT22;6863;48.402;9.994;2022-09-19T08:24:23;8.90;99.90
13585;DHT22;6863;48.402;9.994;2022-09-19T08:26:48;9.00;99.90
13585;DHT22;6863;48.402;9.994;2022-09-19T08:29:14;9.00;99.90
13585;DHT22;6863;48.402;9.994;2022-09-19T08:31:40;9.00;99.90
13585;DHT22;6863;48.402;9.994;2022-09-19T08:34:06;9.10;99.90
13585;DHT22;6863;48.402;9.994;2022-09-19T08:36:33;9.20;99.90
13585;DHT22;6863;48.402;9.994;2022-09-19T08:38:59;9.20;99.90
13585;DHT22;6863;48.402;9.994;2022-09-19T08:41:43;9.40;99.90
13585;DHT22;6863;48.402;9.994;2022-09-19T08:49:17;9.70;99.90
13585;DHT22;6863;48.402;9.994;2022-09-19T08:54:34;9.80;99.90
13585;DHT22;6863;48.402;9.994;2022-09-19T08:57:02;9.80;99.90
13585;DHT22;6863;48.402;9.994;2022-09-19T08:59:37;9.90;99.90
13585;DHT22;6863;48.402;9.994;2022-09-19T09:02:37;10.10;99.90
13585;DHT22;6863;48.402;9.994;2022-09-19T09:05:03;10.20;99.90
13585;DHT22;6863;48.402;9.994;2022-09-19T09:13:02;10.80;99.90
13585;DHT22;6863;48.402;9.994;2022-09-19T09:21:20;10.60;99.90
13585;DHT22;6863;48.402;9.994;2022-09-19T09:24:00;10.80;99.90
13585;DHT22;6863;48.402;9.994;2022-09-19T09:26:30;11.10;99.90
13585;DHT22;6863;48.402;9.994;2022-09-19T09:29:22;11.30;99.90
13585;DHT22;6863;48.402;9.994;2022-09-19T09:31:57;11.40;99.90
13585;DHT22;6863;48.402;9.994;2022-09-19T09:34:27;11.50;99.90
13585;DHT22;6863;48.402;9.994;2022-09-19T09:36:59;11.90;99.90
13585;DHT22;6863;48.402;9.994;2022-09-19T09:42:20;15.20;95.50
13585;DHT22;6863;48.402;9.994;2022-09-19T09:44:51;15.80;92.00
13585;DHT22;6863;48.402;9.994;2022-09-19T09:47:45;16.10;90.20
13585;DHT22;6863;48.402;9.994;2022-09-19T09:50:25;15.50;90.90
13585;DHT22;6863;48.402;9.994;2022-09-19T09:53:03;15.40;91.10
13585;DHT22;6863;48.402;9.994;2022-09-19T10:05:07;15.40;91.20
13585;DHT22;6863;48.402;9.994;2022-09-19T10:08:28;15.00;91.70
13585;DHT22;6863;48.402;9.994;2022-09-19T10:10:30;16.10;91.60
13585;DHT22;6863;48.402;9.994;2022-09-19T10:13:12;17.90;85.60
13585;DHT22;6863;48.402;9.994;2022-09-19T10:15:39;20.00;76.20
13585;DHT22;6863;48.402;9.994;2022-09-19T10:18:12;21.20;72.30
13585;DHT22;6863;48.402;9.994;2022-09-19T10:20:47;21.70;64.70
13585;DHT22;6863;48.402;9.994;2022-09-19T10:23:24;21.30;63.00
13585;DHT22;6863;48.402;9.994;2022-09-19T10:25:57;22.10;63.40
13585;DHT22;6863;48.402;9.994;2022-09-19T10:28:36;23.90;56.20
13585;DHT22;6863;48.402;9.994;2022-09-19T10:31:21;23.60;54.40
13585;DHT22;6863;48.402;9.994;2022-09-19T10:33:51;24.40;53.10
13585;DHT22;6863;48.402;9.994;2022-09-19T10:36:23;24.60;51.50
13585;DHT22;6863;48.402;9.994;2022-09-19T10:38:54;24.50;50.50
13585;DHT22;6863;48.402;9.994;2022-09-19T10:41:25;23.00;52.00
13585;DHT22;6863;48.402;9.994;2022-09-19T10:44:00;22.60;53.80
13585;DHT22;6863;48.402;9.994;2022-09-19T10:48:57;26.30;46.70
13585;DHT22;6863;48.402;9.994;2022-09-19T10:51:44;27.50;46.50
13585;DHT22;6863;48.402;9.994;2022-09-19T10:54:12;27.70;41.70
13585;DHT22;6863;48.402;9.994;2022-09-19T10:56:45;27.00;43.50
13585;DHT22;6863;48.402;9.994;2022-09-19T11:01:38;27.90;42.90
13585;DHT22;6863;48.402;9.994;2022-09-19T11:04:20;29.10;40.30
13585;DHT22;6863;48.402;9.994;2022-09-19T11:07:12;27.90;40.60
13585;DHT22;6863;48.402;9.994;2022-09-19T11:09:40;27.60;42.10
13585;DHT22;6863;48.402;9.994;2022-09-19T11:12:13;28.80;39.30
13585;DHT22;6863;48.402;9.994;2022-09-19T11:14:45;27.60;42.10
13585;DHT22;6863;48.402;9.994;2022-09-19T11:26:02;26.00;43.70
13585;DHT22;6863;48.402;9.994;2022-09-19T11:31:40;25.60;41.60
13585;DHT22;6863;48.402;9.994;2022-09-19T11:37:50;25.60;42.40
13585;DHT22;6863;48.402;9.994;2022-09-19T11:43:41;24.60;43.00
13585;DHT22;6863;48.402;9.994;2022-09-19T11:49:39;23.60;43.90
13585;DHT22;6863;48.402;9.994;2022-09-19T11:58:07;27.80;37.80
13585;DHT22;6863;48.402;9.994;2022-09-19T12:00:53;27.90;38.40
13585;DHT22;6863;48.402;9.994;2022-09-19T12:06:19;32.30;34.80
13585;DHT22;6863;48.402;9.994;2022-09-19T12:11:48;35.10;28.20
13585;DHT22;6863;48.402;9.994;2022-09-19T12:14:24;34.90;27.90
13585;DHT22;6863;48.402;9.994;2022-09-19T12:17:03;33.20;27.80
13585;DHT22;6863;48.402;9.994;2022-09-19T12:19:43;31.60;30.20
13585;DHT22;6863;48.402;9.994;2022-09-19T12:22:38;34.30;28.90
13585;DHT22;6863;48.402;9.994;2022-09-19T12:25:28;36.30;26.90
13585;DHT22;6863;48.402;9.994;2022-09-19T12:28:08;37.80;25.50
13585;DHT22;6863;48.402;9.994;2022-09-19T12:30:43;36.30;26.40
13585;DHT22;6863;48.402;9.994;2022-09-19T12:33:27;35.70;26.10
13585;DHT22;6863;48.402;9.994;2022-09-19T12:36:01;33.80;27.70
13585;DHT22;6863;48.402;9.994;2022-09-19T12:43:49;28.20;34.90
13585;DHT22;6863;48.402;9.994;2022-09-19T12:46:31;27.90;34.70
13585;DHT22;6863;48.402;9.994;2022-09-19T12:52:23;25.80;38.20
13585;DHT22;6863;48.402;9.994;2022-09-19T13:00:19;28.90;33.50
13585;DHT22;6863;48.402;9.994;2022-09-19T13:05:37;30.40;32.50
13585;DHT22;6863;48.402;9.994;2022-09-19T13:08:19;32.20;30.80
13585;DHT22;6863;48.402;9.994;2022-09-19T13:10:55;34.70;28.10
13585;DHT22;6863;48.402;9.994;2022-09-19T13:13:38;35.80;26.90
13585;DHT22;6863;48.402;9.994;2022-09-19T13:16:09;36.20;25.70
13585;DHT22;6863;48.402;9.994;2022-09-19T13:18:43;34.70;26.30
13585;DHT22;6863;48.402;9.994;2022-09-19T13:21:35;34.10;27.00
13585;DHT22;6863;48.402;9.994;2022-09-19T13:24:19;32.40;29.50
13585;DHT22;6863;48.402;9.994;2022-09-19T13:26:52;33.60;28.30
13585;DHT22;6863;48.402;9.994;2022-09-19T13:39:56;26.70;36.20
13585;DHT22;6863;48.402;9.994;2022-09-19T13:42:38;26.10;36.90
13585;DHT22;6863;48.402;9.994;2022-09-19T13:45:36;24.50;38.60
13585;DHT22;6863;48.402;9.994;2022-09-19T13:51:02;22.30;42.90
13585;DHT22;6863;48.402;9.994;2022-09-19T13:53:39;22.50;44.30
13585;DHT22;6863;48.402;9.994;2022-09-19T13:56:26;23.00;43.70
13585;DHT22;6863;48.402;9.994;2022-09-19T13:59:16;22.60;43.30
13585;DHT22;6863;48.402;9.994;2022-09-19T14:02:18;22.30;43.90
13585;DHT22;6863;48.402;9.994;2022-09-19T14:20:52;16.40;56.00
13585;DHT22;6863;48.402;9.994;2022-09-19T14:23:21;16.70;57.10
13585;DHT22;6863;48.402;9.994;2022-09-19T14:26:04;19.20;53.50
13585;DHT22;6863;48.402;9.994;2022-09-19T14:34:15;19.60;48.40
13585;DHT22;6863;48.402;9.994;2022-09-19T14:37:09;18.40;51.80
13585;DHT22;6863;48.402;9.994;2022-09-19T14:43:10;16.80;55.90
13585;DHT22;6863;48.402;9.994;2022-09-19T14:56:30;17.80;56.50
13585;DHT22;6863;48.402;9.994;2022-09-19T14:58:56;18.60;55.90
13585;DHT22;6863;48.402;9.994;2022-09-19T15:01:28;19.70;54.10
13585;DHT22;6863;48.402;9.994;2022-09-19T15:04:09;21.00;51.40
13585;DHT22;6863;48.402;9.994;2022-09-19T15:06:44;22.00;49.10
13585;DHT22;6863;48.402;9.994;2022-09-19T15:09:25;22.10;48.20
13585;DHT22;6863;48.402;9.994;2022-09-19T15:11:53;23.00;47.40
13585;DHT22;6863;48.402;9.994;2022-09-19T15:14:22;23.60;45.40
13585;DHT22;6863;48.402;9.994;2022-09-19T15:17:07;22.90;45.30
13585;DHT22;6863;48.402;9.994;2022-09-19T15:19:43;20.80;48.30
13585;DHT22;6863;48.402;9.994;2022-09-19T15:22:29;19.30;51.30
13585;DHT22;6863;48.402;9.994;2022-09-19T15:24:59;18.20;54.20
13585;DHT22;6863;48.402;9.994;2022-09-19T15:27:29;17.60;56.10
13585;DHT22;6863;48.402;9.994;2022-09-19T15:30:07;17.00;58.00
13585;DHT22;6863;48.402;9.994;2022-09-19T15:32:34;16.50;60.00
13585;DHT22;6863;48.402;9.994;2022-09-19T15:35:12;16.40;60.60
13585;DHT22;6863;48.402;9.994;2022-09-19T15:37:42;16.10;61.80
13585;DHT22;6863;48.402;9.994;2022-09-19T15:40:17;15.90;61.90
13585;DHT22;6863;48.402;9.994;2022-09-19T15:42:45;15.60;63.20
13585;DHT22;6863;48.402;9.994;2022-09-19T15:45:33;15.50;64.90
13585;DHT22;6863;48.402;9.994;2022-09-19T15:48:05;15.80;64.20
13585;DHT22;6863;48.402;9.994;2022-09-19T15:50:37;15.70;64.10
13585;DHT22;6863;48.402;9.994;2022-09-19T15:53:04;15.60;65.20
13585;DHT22;6863;48.402;9.994;2022-09-19T15:55:30;15.80;66.00
13585;DHT22;6863;48.402;9.994;2022-09-19T15:57:57;16.00;66.40
13585;DHT22;6863;48.402;9.994;2022-09-19T16:00:26;16.20;65.90
13585;DHT22;6863;48.402;9.994;2022-09-19T16:03:01;16.40;65.40
13585;DHT22;6863;48.402;9.994;2022-09-19T16:05:35;16.40;65.60
13585;DHT22;6863;48.402;9.994;2022-09-19T16:08:24;16.50;65.30
13585;DHT22;6863;48.402;9.994;2022-09-19T16:11:35;16.50;65.40
13585;DHT22;6863;48.402;9.994;2022-09-19T16:14:19;16.40;66.30
13585;DHT22;6863;48.402;9.994;2022-09-19T16:16:51;16.20;66.50
13585;DHT22;6863;48.402;9.994;2022-09-19T16:21:56;15.20;68.30
13585;DHT22;6863;48.402;9.994;2022-09-19T16:27:04;15.20;68.30
13585;DHT22;6863;48.402;9.994;2022-09-19T16:29:35;15.10;68.00
13585;DHT22;6863;48.402;9.994;2022-09-19T16:32:05;14.90;68.20
13585;DHT22;6863;48.402;9.994;2022-09-19T16:34:36;14.70;69.70
13585;DHT22;6863;48.402;9.994;2022-09-19T16:37:03;14.60;70.80
13585;DHT22;6863;48.402;9.994;2022-09-19T16:39:42;14.30;75.20
13585;DHT22;6863;48.402;9.994;2022-09-19T16:47:11;13.60;87.70
13585;DHT22;6863;48.402;9.994;2022-09-19T16:49:38;13.40;91.00
13585;DHT22;6863;48.402;9.994;2022-09-19T16:52:04;13.20;92.30
13585;DHT22;6863;48.402;9.994;2022-09-19T16:54:30;12.90;93.60
13585;DHT22;6863;48.402;9.994;2022-09-19T16:56:56;12.70;95.40
13585;DHT22;6863;48.402;9.994;2022-09-19T16:59:23;12.60;96.00
13585;DHT22;6863;48.402;9.994;2022-09-19T17:01:52;12.40;95.80
13585;DHT22;6863;48.402;9.994;2022-09-19T17:04:20;12.20;96.70
13585;DHT22;6863;48.402;9.994;2022-09-19T17:06:46;12.10;97.90
13585;DHT22;6863;48.402;9.994;2022-09-19T17:09:12;11.80;98.40
13585;DHT22;6863;48.402;9.994;2022-09-19T17:11:38;11.60;99.20
13585;DHT22;6863;48.402;9.994;2022-09-19T17:14:33;11.40;99.90
13585;DHT22;6863;48.402;9.994;2022-09-19T17:16:58;11.30;99.90
13585;DHT22;6863;48.402;9.994;2022-09-19T17:19:24;11.30;99.90
13585;DHT22;6863;48.402;9.994;2022-09-19T17:21:50;11.20;99.90
13585;DHT22;6863;48.402;9.994;2022-09-19T17:24:15;11.10;99.90
13585;DHT22;6863;48.402;9.994;2022-09-19T17:26:42;11.00;99.90
13585;DHT22;6863;48.402;9.994;2022-09-19T17:29:08;10.90;99.90
13585;DHT22;6863;48.402;9.994;2022-09-19T17:31:34;10.90;99.90
13585;DHT22;6863;48.402;9.994;2022-09-19T17:34:00;10.90;99.90
13585;DHT22;6863;48.402;9.994;2022-09-19T17:36:33;10.90;99.90
13585;DHT22;6863;48.402;9.994;2022-09-19T17:38:59;10.90;99.90
13585;DHT22;6863;48.402;9.994;2022-09-19T17:41:25;10.90;99.90
13585;DHT22;6863;48.402;9.994;2022-09-19T17:43:54;10.80;99.90
13585;DHT22;6863;48.402;9.994;2022-09-19T17:46:20;10.90;99.90
13585;DHT22;6863;48.402;9.994;2022-09-19T17:48:49;10.80;99.90
13585;DHT22;6863;48.402;9.994;2022-09-19T17:51:16;10.70;99.90
13585;DHT22;6863;48.402;9.994;2022-09-19T17:53:42;10.70;99.90
13585;DHT22;6863;48.402;9.994;2022-09-19T17:56:15;10.50;99.90
13585;DHT22;6863;48.402;9.994;2022-09-19T17:58:41;10.40;99.90
13585;DHT22;6863;48.402;9.994;2022-09-19T18:01:07;10.40;99.90
13585;DHT22;6863;48.402;9.994;2022-09-19T18:03:51;10.40;99.90
13585;DHT22;6863;48.402;9.994;2022-09-19T18:06:17;10.40;99.90
13585;DHT22;6863;48.402;9.994;2022-09-19T18:08:44;10.30;99.90
13585;DHT22;6863;48.402;9.994;2022-09-19T18:11:10;10.40;99.90
13585;DHT22;6863;48.402;9.994;2022-09-19T18:13:36;10.30;99.90
13585;DHT22;6863;48.402;9.994;2022-09-19T18:16:06;10.30;99.90
13585;DHT22;6863;48.402;9.994;2022-09-19T18:18:34;10.30;99.90
13585;DHT22;6863;48.402;9.994;2022-09-19T18:21:01;10.30;99.90
13585;DHT22;6863;48.402;9.994;2022-09-19T18:23:32;10.30;99.90
13585;DHT22;6863;48.402;9.994;2022-09-19T18:26:02;10.30;99.90
13585;DHT22;6863;48.402;9.994;2022-09-19T18:28:29;10.30;99.90
13585;DHT22;6863;48.402;9.994;2022-09-19T18:30:56;10.20;99.90
13585;DHT22;6863;48.402;9.994;2022-09-19T18:33:23;10.20;99.90
13585;DHT22;6863;48.402;9.994;2022-09-19T18:35:50;10.30;99.90
13585;DHT22;6863;48.402;9.994;2022-09-19T18:38:16;10.30;99.90
13585;DHT22;6863;48.402;9.994;2022-09-19T18:40:42;10.20;99.90
13585;DHT22;6863;48.402;9.994;2022-09-19T18:43:08;10.10;99.90
13585;DHT22;6863;48.402;9.994;2022-09-19T18:45:34;10.10;99.90
13585;DHT22;6863;48.402;9.994;2022-09-19T18:47:59;10.00;99.90
13585;DHT22;6863;48.402;9.994;2022-09-19T18:50:25;10.10;99.90
13585;DHT22;6863;48.402;9.994;2022-09-19T18:52:51;10.10;99.90
13585;DHT22;6863;48.402;9.994;2022-09-19T18:55:17;10.00;99.90
13585;DHT22;6863;48.402;9.994;2022-09-19T18:57:43;10.00;99.90
13585;DHT22;6863;48.402;9.994;2022-09-19T19:00:09;10.00;99.90
13585;DHT22;6863;48.402;9.994;2022-09-19T19:02:35;10.00;99.90
13585;DHT22;6863;48.402;9.994;2022-09-19T19:05:04;10.00;99.90
13585;DHT22;6863;48.402;9.994;2022-09-19T19:07:30;9.90;99.90
13585;DHT22;6863;48.402;9.994;2022-09-19T19:09:56;9.90;99.90
13585;DHT22;6863;48.402;9.994;2022-09-19T19:12:22;9.80;99.90
13585;DHT22;6863;48.402;9.994;2022-09-19T19:14:48;9.70;99.90
13585;DHT22;6863;48.402;9.994;2022-09-19T19:17:14;9.70;99.90
13585;DHT22;6863;48.402;9.994;2022-09-19T19:19:40;9.70;99.90
13585;DHT22;6863;48.402;9.994;2022-09-19T19:22:05;9.70;99.90
13585;DHT22;6863;48.402;9.994;2022-09-19T19:26:56;9.70;99.90